West Chicago, IL (60185)

08:11 PM CDT die 22o May, anno 2015 (GMT -0500)
Ingalton Hills Estates | | Change Station
CLOSE
Current Station
Personal Weather Stations
Location: West Chicago, IL
Elevation: 780 ft
Nearby Weather Stations

Elev 780 ft 41.91 °N, 88.20 °W | Updated 9 seconds ago

Clear
Serena
56.0 °F
Feels Like 56.0 °F
N
1.1
Ventus Variabilis Ventus from Magis Aquilo quam Zephyrus
Gusts 0.0 mph

Hodie
High -- | Low -- °F
--% Chance of Precip.
Yesterday
High -- | Low -- °F
Precip. -- in
5:26 AM 8:12 PM
Waxing Crescent, 25% visible
Pressio 30.25 in
Visibilitas 10.0 milia passuum
Clouds Serena
Frigus in quo Ros apparet 30 °F
Umor 37%
Rainfall 0.00 in
Snow Depth Not available.
UV 0 out of 12
Pollen 8.00 out of 12
Air Quality Not available.
Flu Activity Sporadic
METAR KDPA 230052Z 08009KT 10SM CLR 14/M02 A3024 RMK AO2 SLP242 T01441017

More Conditions Fewer Conditions

Pressio 30.25 in
Visibilitas 10.0 milia passuum
Clouds Serena
Frigus in quo Ros apparet 30 °F
Umor 37%
Rainfall 0.00 in
Snow Depth Not available.
UV 0 out of 12
Pollen 8.00 out of 12
Air Quality Not available.
Flu Activity Sporadic
METAR KDPA 230052Z 08009KT 10SM CLR 14/M02 A3024 RMK AO2 SLP242 T01441017

More Conditions Fewer Conditions

10-Day Weather Forecast

Almanac

Astronomy

May. 22, 2015 Rise Set
Actual Time
Civil Twilight
Nautical Twilight
Astronomical Twilight
Moon
Length Of Visible Light
Length of Day
Tomorrow will be .
, % of the Moon is Illuminated

Today's Extremes

State Highs State Lows

Community

WunderPhotos

Upload Photos

1,823,355 photos uploaded!

WunderBlogs® & News

Nearby

Air Quality

  Air Quality AQ Index Pollutant
Not available.

Snow Depth

Station Depth Elevation

Earthquake Activity

City Distance Mag. Time & Date
Minimum magnitude displayed is 2.5.

Coastal Water Temperatures

Locus Calor

Stations

Nearby Weather Stations

Station Location Temp Frigus Venti Frigus in quo Ros apparet Umor Ventus Precip. Elev Renovata Type